Terminal Aerodrome Forecast
Issued by NWS Denver/Boulder, CO

Home | Current Version | Previous Version | Text Only | Print | Product List | Glossary On
Versions: 1 2 3 4 5 6 7 8 9 10 11 12 13 14 15 16 17 18 19 20 21 22 23 24 25 26 27 28 29 30 31 32 33 34 35 36 37 38 39 40
000
FTUS45 KBOU 242323
TAFDEN
TAF
KDEN 242323Z 2500/2606 02012KT P6SM SCT050 BKN070
     FM250100 07011KT P6SM SCT050 BKN070
     FM250300 12011KT P6SM SCT050 BKN070
     FM250600 15010KT P6SM SCT040 BKN070
     FM250900 18008KT P6SM SCT070 SCT120
     FM251500 36006KT P6SM SCT040 BKN060
     FM251900 04006KT P6SM SCT050 BKN080
     FM252300 09008KT P6SM VCSH SCT050 BKN080=

USA.gov is the U.S. government's official web portal to all federal, state and local government web resources and services.